createdAt,value
2023-04-08T00:02:00.216Z,46.25
2023-04-08T00:04:30.117Z,47.50
2023-04-08T00:07:00.114Z,48.15
2023-04-08T00:09:29.856Z,45.40
2023-04-08T00:12:00.157Z,46.40
2023-04-08T00:14:29.992Z,44.88
2023-04-08T00:16:59.981Z,45.35
2023-04-08T00:19:29.819Z,46.70
2023-04-08T00:21:59.826Z,48.10
2023-04-08T00:24:29.537Z,44.72
2023-04-08T00:26:59.669Z,45.38
2023-04-08T00:29:29.366Z,44.90
2023-04-08T00:31:59.662Z,44.58
2023-04-08T00:34:29.472Z,46.75
2023-04-08T00:36:59.524Z,45.47
2023-04-08T00:39:29.272Z,49.15
2023-04-08T00:41:59.338Z,43.38
2023-04-08T00:44:29.394Z,44.70
2023-04-08T00:47:00.146Z,44.60
2023-04-08T00:49:30.172Z,44.33
2023-04-08T00:52:02.249Z,43.80
2023-04-08T00:54:33.559Z,45.40
2023-04-08T00:57:04.024Z,43.60
2023-04-08T00:59:34.854Z,45.63
2023-04-08T01:02:24.103Z,43.92
2023-04-08T01:05:24.364Z,44.53
2023-04-08T01:07:54.666Z,43.17
2023-04-08T01:10:30.872Z,44.85
2023-04-08T01:13:05.720Z,57.03
2023-04-08T01:15:38.553Z,51.22
2023-04-08T01:18:12.138Z,45.58
2023-04-08T01:20:47.481Z,45.30
2023-04-08T01:23:57.373Z,55.42
2023-04-08T01:26:28.625Z,58.22
2023-04-08T01:29:02.609Z,48.97
2023-04-08T01:31:33.720Z,50.38
2023-04-08T01:34:06.296Z,44.78
2023-04-08T01:36:38.041Z,47.67
2023-04-08T01:39:09.801Z,46.53
2023-04-08T01:41:40.189Z,45.20
2023-04-08T01:44:11.812Z,44.45
2023-04-08T01:46:43.946Z,44.33
2023-04-08T01:49:14.415Z,43.83
2023-04-08T01:51:46.596Z,47.30
2023-04-08T01:54:16.966Z,43.72
2023-04-08T01:56:48.064Z,48.78
2023-04-08T01:59:21.885Z,43.15
2023-04-08T02:01:53.926Z,51.65
2023-04-08T02:04:24.314Z,51.08
2023-04-08T02:06:54.633Z,45.00
2023-04-08T02:09:27.001Z,44.90
2023-04-08T02:11:58.484Z,45.15
2023-04-08T02:14:30.693Z,40.92
2023-04-08T02:17:23.865Z,40.83
2023-04-08T02:20:13.601Z,39.90
2023-04-08T02:22:52.261Z,43.55
2023-04-08T02:25:26.782Z,43.58
2023-04-08T02:27:57.839Z,54.03
2023-04-08T02:30:29.748Z,39.92
2023-04-08T02:33:01.130Z,39.90
2023-04-08T02:35:31.633Z,41.55
2023-04-08T02:38:01.908Z,40.95
2023-04-08T02:40:34.527Z,39.60
2023-04-08T02:43:06.402Z,39.00
2023-04-08T02:45:47.512Z,41.60
2023-04-08T02:48:18.336Z,40.30
2023-04-08T02:50:48.429Z,40.33
2023-04-08T02:53:18.614Z,38.90
2023-04-08T02:55:48.516Z,44.35
2023-04-08T02:58:18.564Z,38.53
2023-04-08T03:00:48.566Z,37.85
2023-04-08T03:03:18.713Z,39.25
2023-04-08T03:05:48.505Z,38.65
2023-04-08T03:08:18.457Z,39.50
2023-04-08T03:10:48.210Z,41.15
2023-04-08T03:13:18.868Z,39.33
2023-04-08T03:15:48.632Z,38.15
2023-04-08T03:18:19.330Z,39.92
2023-04-08T03:20:49.091Z,40.25
2023-04-08T03:23:19.147Z,40.03
2023-04-08T03:25:48.914Z,40.30
2023-04-08T03:28:18.960Z,42.35
2023-04-08T03:30:48.988Z,40.90
2023-04-08T03:33:18.911Z,40.40
2023-04-08T03:35:48.676Z,46.53
2023-04-08T03:38:18.630Z,44.40
2023-04-08T03:40:48.374Z,46.28
2023-04-08T03:43:18.356Z,41.22
2023-04-08T03:45:48.833Z,40.13
2023-04-08T03:48:19.211Z,40.50
2023-04-08T03:50:49.418Z,40.28
2023-04-08T03:53:19.360Z,39.85
2023-04-08T03:55:52.731Z,41.20
2023-04-08T03:58:22.871Z,39.92
2023-04-08T04:00:53.045Z,41.97
2023-04-08T04:03:23.172Z,41.20
2023-04-08T04:05:53.254Z,40.78
2023-04-08T04:08:23.412Z,41.75
2023-04-08T04:10:53.314Z,39.47
2023-04-08T04:13:23.538Z,41.72
2023-04-08T04:15:53.436Z,39.72
2023-04-08T04:18:23.573Z,39.80
2023-04-08T04:20:53.328Z,38.88
2023-04-08T04:23:24.340Z,37.38
2023-04-08T04:25:54.260Z,39.28
2023-04-08T04:28:24.171Z,38.00
2023-04-08T04:30:55.921Z,38.58
2023-04-08T04:33:26.586Z,36.05
2023-04-08T04:35:56.402Z,37.25
2023-04-08T04:38:26.311Z,37.33
2023-04-08T04:40:56.251Z,37.75
2023-04-08T04:43:26.378Z,35.38
2023-04-08T04:45:58.227Z,35.75
2023-04-08T04:48:28.481Z,35.55
2023-04-08T04:50:59.838Z,35.55
2023-04-08T04:53:29.951Z,37.20
2023-04-08T04:55:59.738Z,37.28
2023-04-08T04:58:30.207Z,37.70
2023-04-08T05:01:00.207Z,36.83
2023-04-08T05:03:30.393Z,35.70
2023-04-08T05:06:00.148Z,36.28
2023-04-08T05:08:30.155Z,35.53
2023-04-08T05:11:03.597Z,36.65
2023-04-08T05:13:34.925Z,36.50
2023-04-08T05:16:04.968Z,38.17
2023-04-08T05:18:34.766Z,36.55
2023-04-08T05:21:05.369Z,36.22
2023-04-08T05:23:36.494Z,36.28
2023-04-08T05:26:10.400Z,36.20
2023-04-08T05:28:40.404Z,37.47
2023-04-08T05:31:10.260Z,38.17
2023-04-08T05:33:40.457Z,38.00
2023-04-08T05:36:10.282Z,37.70
2023-04-08T05:38:41.242Z,38.33
2023-04-08T05:41:11.262Z,38.65
2023-04-08T05:43:41.944Z,40.38
2023-04-08T05:46:13.193Z,37.42
2023-04-08T05:48:43.671Z,39.25
2023-04-08T05:51:19.283Z,39.92
2023-04-08T05:53:49.496Z,39.42
2023-04-08T05:56:19.311Z,41.30
2023-04-08T05:58:49.763Z,52.13
2023-04-08T06:01:19.694Z,39.65
2023-04-08T06:03:50.042Z,40.13
2023-04-08T06:06:20.057Z,38.25
2023-04-08T06:08:50.317Z,37.13
2023-04-08T06:11:20.626Z,39.13
2023-04-08T06:13:50.388Z,38.92
2023-04-08T06:16:21.379Z,38.45
2023-04-08T06:18:51.996Z,38.20
2023-04-08T06:21:22.979Z,37.45
2023-04-08T06:23:53.124Z,38.63
2023-04-08T06:26:23.106Z,38.42
2023-04-08T06:28:53.722Z,38.40
2023-04-08T06:31:23.990Z,38.28
2023-04-08T06:33:54.148Z,37.05
2023-04-08T06:36:24.180Z,36.65
2023-04-08T06:38:54.046Z,37.30
2023-04-08T06:41:24.192Z,38.50
2023-04-08T06:43:54.172Z,36.35
2023-04-08T06:46:26.117Z,37.05
2023-04-08T06:48:57.280Z,37.22
2023-04-08T06:51:27.350Z,35.45
2023-04-08T06:53:57.929Z,35.25
2023-04-08T06:56:27.877Z,34.63
2023-04-08T06:58:58.108Z,34.85
2023-04-08T07:01:28.083Z,34.85
2023-04-08T07:04:00.871Z,34.97
2023-04-08T07:06:31.194Z,34.78
2023-04-08T07:09:01.019Z,34.00
2023-04-08T07:11:31.082Z,34.72
2023-04-08T07:14:00.932Z,36.00
2023-04-08T07:16:31.034Z,34.83
2023-04-08T07:19:00.979Z,35.85
2023-04-08T07:21:32.622Z,34.53
2023-04-08T07:24:02.780Z,36.00
2023-04-08T07:26:32.769Z,36.58
2023-04-08T07:29:02.738Z,36.85
2023-04-08T07:31:32.739Z,37.47
2023-04-08T07:34:02.977Z,35.50
2023-04-08T07:36:33.244Z,38.35
2023-04-08T07:39:03.474Z,38.72
2023-04-08T07:41:33.381Z,38.17
2023-04-08T07:44:03.558Z,39.95
2023-04-08T07:46:35.616Z,40.60
2023-04-08T07:49:05.900Z,39.85
2023-04-08T07:51:36.390Z,42.75
2023-04-08T07:54:06.437Z,43.10
2023-04-08T07:56:36.297Z,43.92
2023-04-08T07:59:06.744Z,43.78
2023-04-08T08:01:37.511Z,45.13
2023-04-08T08:04:08.022Z,48.90
2023-04-08T08:06:37.847Z,53.33
2023-04-08T08:09:08.176Z,53.15
2023-04-08T08:11:38.051Z,53.97
2023-04-08T08:14:09.542Z,47.90
2023-04-08T08:16:40.324Z,43.33
2023-04-08T08:19:10.402Z,43.22
2023-04-08T08:21:41.089Z,41.92
2023-04-08T08:24:10.971Z,44.10
2023-04-08T08:26:41.360Z,44.72
2023-04-08T08:29:11.106Z,42.92
2023-04-08T08:32:13.636Z,40.17
2023-04-08T08:34:43.721Z,37.30
2023-04-08T08:37:13.497Z,38.22
2023-04-08T08:39:43.380Z,32.90
2023-04-08T08:42:23.993Z,31.50
2023-04-08T08:44:54.353Z,31.00
2023-04-08T08:47:24.245Z,30.50
2023-04-08T08:49:54.414Z,28.77
2023-04-08T08:52:24.237Z,28.40
2023-04-08T08:55:01.425Z,29.38
2023-04-08T08:57:31.697Z,31.58
2023-04-08T09:00:01.529Z,31.33
2023-04-08T09:02:35.331Z,32.85
2023-04-08T09:05:07.236Z,44.40
2023-04-08T09:07:44.117Z,41.65
2023-04-08T09:10:14.347Z,31.58
2023-04-08T09:13:04.015Z,33.25
2023-04-08T09:16:07.092Z,32.92
2023-04-08T09:18:38.764Z,33.83
2023-04-08T09:21:29.019Z,33.72
2023-04-08T09:23:59.044Z,32.85
2023-04-08T09:26:29.172Z,34.25
2023-04-08T09:29:25.451Z,33.67
2023-04-08T09:31:59.253Z,34.40
2023-04-08T09:34:32.452Z,34.40
2023-04-08T09:37:02.516Z,38.10
2023-04-08T09:39:33.144Z,38.42
2023-04-08T09:42:08.336Z,38.38
2023-04-08T09:44:39.935Z,38.72
2023-04-08T09:47:23.965Z,39.78
2023-04-08T09:49:59.981Z,39.35
2023-04-08T09:52:38.910Z,40.60
2023-04-08T09:58:54.496Z,43.15
2023-04-08T10:01:39.762Z,44.17
2023-04-08T10:04:16.469Z,42.72
2023-04-08T10:06:47.651Z,43.88
2023-04-08T10:09:18.034Z,43.55
2023-04-08T10:11:48.301Z,43.17
2023-04-08T10:14:18.473Z,45.13
2023-04-08T10:16:48.343Z,46.50
2023-04-08T10:19:46.159Z,44.80
2023-04-08T10:22:50.805Z,45.63
2023-04-08T10:25:46.646Z,45.33
2023-04-08T10:28:34.539Z,44.05
2023-04-08T10:31:04.904Z,43.17
2023-04-08T10:33:40.849Z,42.22
2023-04-08T10:36:14.965Z,40.83
2023-04-08T10:38:45.237Z,42.22
2023-04-08T10:41:15.784Z,42.65
2023-04-08T10:43:49.854Z,42.97
2023-04-08T10:46:20.168Z,44.20
2023-04-08T10:49:07.223Z,43.22
2023-04-08T10:51:37.494Z,44.63
2023-04-08T10:54:18.597Z,44.80
2023-04-08T10:56:55.052Z,52.78
2023-04-08T10:59:34.360Z,46.42
2023-04-08T11:02:05.077Z,45.20
2023-04-08T11:04:35.026Z,42.53
2023-04-08T11:07:10.005Z,44.40
2023-04-08T11:09:42.615Z,44.90
2023-04-08T11:12:13.411Z,41.22
2023-04-08T11:14:44.749Z,43.20
2023-04-08T11:17:17.861Z,45.92
2023-04-08T11:19:48.761Z,60.15
2023-04-08T11:22:19.856Z,72.05
2023-04-08T11:24:50.396Z,49.78
2023-04-08T11:27:20.766Z,53.55
2023-04-08T11:29:50.855Z,49.35
2023-04-08T11:32:21.712Z,51.05
2023-04-08T11:34:52.482Z,49.38
2023-04-08T11:37:23.769Z,50.28
2023-04-08T11:39:56.376Z,54.83
2023-04-08T11:42:34.181Z,58.88
2023-04-08T11:45:11.548Z,60.08
2023-04-08T11:47:42.099Z,59.22
2023-04-08T11:50:12.924Z,56.53
2023-04-08T11:52:45.598Z,60.92
2023-04-08T11:55:29.020Z,63.38
2023-04-08T11:58:03.529Z,59.33
2023-04-08T12:00:34.620Z,55.92
2023-04-08T12:03:05.332Z,56.00
2023-04-08T12:05:35.619Z,55.78
2023-04-08T12:08:05.846Z,55.55
2023-04-08T12:10:36.232Z,57.25
2023-04-08T12:13:06.176Z,57.75
2023-04-08T12:15:36.247Z,57.60
2023-04-08T12:18:07.392Z,59.20
2023-04-08T12:20:37.654Z,59.55
2023-04-08T12:23:09.536Z,58.90
2023-04-08T12:25:39.924Z,56.88
2023-04-08T12:28:11.349Z,57.03
2023-04-08T12:30:41.452Z,56.67
2023-04-08T12:33:11.219Z,53.25
2023-04-08T12:35:41.189Z,53.67
2023-04-08T12:38:11.060Z,54.80
2023-04-08T12:40:41.001Z,54.28
2023-04-08T12:43:10.773Z,53.20
2023-04-08T12:45:40.884Z,56.28
2023-04-08T12:48:10.848Z,54.22
2023-04-08T12:50:40.880Z,56.28
2023-04-08T12:53:10.825Z,59.13
2023-04-08T12:55:42.275Z,69.70
2023-04-08T12:58:13.918Z,63.47
2023-04-08T13:00:47.955Z,61.60
2023-04-08T13:03:19.524Z,63.88
2023-04-08T13:05:50.092Z,67.13
2023-04-08T13:08:19.877Z,69.82
2023-04-08T13:10:50.073Z,72.18
2023-04-08T13:13:20.100Z,68.75
2023-04-08T13:15:50.611Z,66.18
2023-04-08T13:18:20.765Z,64.65
2023-04-08T13:20:50.588Z,62.22
2023-04-08T13:23:20.650Z,61.92
2023-04-08T13:25:50.948Z,61.45
2023-04-08T13:28:21.152Z,62.72
2023-04-08T13:30:51.013Z,68.88
2023-04-08T13:33:21.177Z,63.28
2023-04-08T13:35:51.124Z,62.30
2023-04-08T13:38:21.414Z,59.45
2023-04-08T13:40:51.768Z,70.70
2023-04-08T13:43:22.171Z,71.28
2023-04-08T13:45:51.996Z,69.38
2023-04-08T13:48:23.005Z,65.63
2023-04-08T13:50:52.742Z,60.60
2023-04-08T13:53:22.789Z,61.20
2023-04-08T13:55:56.522Z,61.15
2023-04-08T13:58:28.032Z,56.72
2023-04-08T14:00:58.674Z,53.47
2023-04-08T14:03:29.695Z,54.88
2023-04-08T14:06:01.719Z,54.60
2023-04-08T14:08:32.348Z,57.47
2023-04-08T14:11:02.278Z,57.75
2023-04-08T14:13:33.840Z,58.97
2023-04-08T14:16:04.558Z,59.08
2023-04-08T14:18:34.610Z,67.90
2023-04-08T14:21:05.169Z,59.25
2023-04-08T14:23:35.363Z,61.13
2023-04-08T14:26:05.141Z,60.45
2023-04-08T14:28:35.125Z,58.53
2023-04-08T14:31:06.277Z,59.30
2023-04-08T14:33:36.355Z,59.00
2023-04-08T14:36:06.327Z,58.22
2023-04-08T14:38:37.004Z,58.83
2023-04-08T14:41:06.836Z,62.92
2023-04-08T14:43:36.910Z,74.50
2023-04-08T14:46:07.094Z,69.05
2023-04-08T14:48:37.285Z,66.60
2023-04-08T14:51:07.885Z,63.90
2023-04-08T14:53:38.125Z,61.50
2023-04-08T14:56:10.177Z,58.97
2023-04-08T14:58:40.383Z,67.20
2023-04-08T15:01:10.210Z,71.65
2023-04-08T15:03:40.452Z,60.50
2023-04-08T15:06:10.457Z,55.33
2023-04-08T15:08:41.025Z,52.70
2023-04-08T15:11:11.119Z,53.00
2023-04-08T15:13:41.943Z,62.28
2023-04-08T15:16:11.973Z,55.70
2023-04-08T15:18:42.548Z,54.88
2023-04-08T15:21:12.520Z,54.53
2023-04-08T15:23:43.621Z,54.45
2023-04-08T15:26:13.741Z,66.13
2023-04-08T15:28:43.706Z,60.15
2023-04-08T15:31:13.797Z,62.08
2023-04-08T15:33:45.163Z,67.45
2023-04-08T15:36:20.974Z,77.28
2023-04-08T15:38:51.312Z,71.20
2023-04-08T15:41:23.684Z,69.05
2023-04-08T15:43:55.522Z,77.25
2023-04-08T15:46:25.968Z,70.38
2023-04-08T15:48:56.262Z,68.10
2023-04-08T15:51:28.508Z,140.63
2023-04-08T15:53:59.024Z,66.72
2023-04-08T15:56:30.995Z,60.70
2023-04-08T15:59:01.162Z,58.80
2023-04-08T16:01:30.946Z,60.58
2023-04-08T16:04:01.244Z,65.00
2023-04-08T16:06:31.776Z,69.10
2023-04-08T16:09:02.161Z,66.53
2023-04-08T16:11:32.295Z,66.63
2023-04-08T16:14:02.408Z,66.57
2023-04-08T16:16:33.330Z,67.30
2023-04-08T16:19:03.739Z,65.25
2023-04-08T16:21:33.890Z,65.22
2023-04-08T16:24:04.057Z,63.15
2023-04-08T16:26:33.839Z,62.40
2023-04-08T16:29:04.086Z,61.75
2023-04-08T16:31:33.837Z,61.53
2023-04-08T16:34:03.866Z,58.05
2023-04-08T16:36:33.748Z,57.80
2023-04-08T16:39:03.820Z,58.10
2023-04-08T16:41:33.512Z,58.25
2023-04-08T16:44:03.422Z,60.30
2023-04-08T16:46:33.467Z,61.10
2023-04-08T16:49:03.440Z,59.63
2023-04-08T16:51:33.801Z,58.95
2023-04-08T16:54:03.694Z,61.17
2023-04-08T16:56:33.665Z,58.83
2023-04-08T16:59:03.630Z,60.25
2023-04-08T17:01:33.457Z,57.85
2023-04-08T17:04:03.436Z,56.00
2023-04-08T17:06:33.266Z,55.35
2023-04-08T17:09:04.308Z,58.38
2023-04-08T17:11:34.282Z,61.97
2023-04-08T17:14:04.254Z,73.68
2023-04-08T17:16:34.256Z,79.50
2023-04-08T17:19:04.035Z,81.88
2023-04-08T17:21:34.049Z,83.53
2023-04-08T17:24:03.783Z,83.25
2023-04-08T17:26:33.812Z,79.10
2023-04-08T17:29:03.533Z,76.82
2023-04-08T17:31:34.545Z,74.03
2023-04-08T17:34:04.956Z,71.05
2023-04-08T17:36:34.700Z,67.90
2023-04-08T17:39:04.624Z,68.95
2023-04-08T17:41:40.539Z,66.40
2023-04-08T17:44:11.455Z,68.03
2023-04-08T17:46:41.182Z,73.38
2023-04-08T17:49:14.324Z,70.55
2023-04-08T17:51:44.490Z,76.18
2023-04-08T17:54:14.449Z,75.50
2023-04-08T17:56:45.219Z,72.78
2023-04-08T17:59:16.007Z,79.75
2023-04-08T18:01:45.930Z,82.95
2023-04-08T18:04:16.126Z,84.35
2023-04-08T18:06:46.006Z,85.25
2023-04-08T18:09:16.104Z,88.07
2023-04-08T18:11:45.815Z,83.03
2023-04-08T18:14:15.750Z,85.32
2023-04-08T18:16:45.605Z,86.85
2023-04-08T18:19:15.626Z,89.45
2023-04-08T18:21:45.408Z,85.93
2023-04-08T18:24:15.421Z,86.35
2023-04-08T18:26:49.113Z,89.32
2023-04-08T18:29:24.533Z,83.05
2023-04-08T18:31:54.305Z,88.30
2023-04-08T18:34:26.081Z,82.47
2023-04-08T18:36:56.265Z,73.28
2023-04-08T18:39:26.099Z,71.07
2023-04-08T18:41:56.012Z,63.45
2023-04-08T18:44:25.773Z,64.90
2023-04-08T18:46:55.680Z,63.63
2023-04-08T18:49:25.513Z,64.80
2023-04-08T18:52:02.339Z,63.65
2023-04-08T18:54:33.562Z,60.95
2023-04-08T18:57:04.241Z,60.97
2023-04-08T18:59:34.404Z,57.38
2023-04-08T19:02:04.234Z,55.00
2023-04-08T19:04:34.932Z,49.88
2023-04-08T19:07:04.672Z,48.45
2023-04-08T19:09:34.921Z,46.70
2023-04-08T19:12:04.626Z,45.80
2023-04-08T19:14:34.657Z,44.67
2023-04-08T19:17:04.388Z,46.38
2023-04-08T19:19:34.572Z,47.33
2023-04-08T19:22:07.082Z,46.17
2023-04-08T19:24:38.173Z,47.38
2023-04-08T19:27:08.007Z,46.60
2023-04-08T19:29:38.308Z,44.45
2023-04-08T19:32:08.253Z,42.08
2023-04-08T19:34:41.225Z,40.63
2023-04-08T19:37:11.598Z,40.58
2023-04-08T19:39:41.481Z,38.53
2023-04-08T19:42:12.403Z,38.60
2023-04-08T19:44:42.851Z,38.50
2023-04-08T19:47:12.826Z,38.50
2023-04-08T19:49:42.842Z,38.35
2023-04-08T19:52:12.986Z,36.88
2023-04-08T19:54:44.766Z,37.33
2023-04-08T19:57:14.792Z,37.15
2023-04-08T19:59:44.614Z,35.97
2023-04-08T20:02:14.870Z,35.58
2023-04-08T20:04:46.228Z,35.70
2023-04-08T20:07:16.543Z,36.22
2023-04-08T20:09:46.359Z,35.65
2023-04-08T20:12:16.321Z,34.13
2023-04-08T20:14:46.583Z,34.80
2023-04-08T20:17:17.930Z,34.30
2023-04-08T20:19:47.919Z,34.58
2023-04-08T20:22:17.697Z,35.50
2023-04-08T20:24:49.280Z,34.72
2023-04-08T20:27:20.575Z,34.33
2023-04-08T20:29:50.820Z,35.22
2023-04-08T20:32:20.772Z,35.08
2023-04-08T20:34:50.916Z,33.90
2023-04-08T20:37:21.116Z,36.13
2023-04-08T20:39:51.110Z,33.85
2023-04-08T20:42:20.866Z,34.42
2023-04-08T20:44:50.927Z,34.00
2023-04-08T20:47:21.205Z,34.38
2023-04-08T20:49:51.364Z,34.08
2023-04-08T20:52:21.119Z,34.50
2023-04-08T20:54:51.129Z,36.35
2023-04-08T20:57:20.991Z,35.83
2023-04-08T20:59:51.188Z,36.97
2023-04-08T21:02:23.079Z,36.67
2023-04-08T21:04:53.381Z,35.67
2023-04-08T21:07:23.189Z,36.45
2023-04-08T21:09:53.306Z,34.53
2023-04-08T21:12:23.024Z,34.88
2023-04-08T21:14:53.198Z,35.28
2023-04-08T21:17:23.110Z,35.15
2023-04-08T21:19:53.613Z,32.90
2023-04-08T21:22:23.766Z,28.63
2023-04-08T21:24:53.550Z,27.60
2023-04-08T21:27:23.470Z,25.70
2023-04-08T21:29:54.178Z,27.05
2023-04-08T21:32:24.263Z,26.38
2023-04-08T21:34:57.271Z,25.70
2023-04-08T21:37:27.440Z,25.80
2023-04-08T21:39:57.552Z,26.83
2023-04-08T21:42:29.054Z,25.70
2023-04-08T21:44:59.112Z,24.65
2023-04-08T21:47:28.980Z,24.45
2023-04-08T21:49:59.217Z,25.38
2023-04-08T21:52:28.955Z,24.45
2023-04-08T21:54:58.998Z,23.80
2023-04-08T21:57:28.697Z,25.05
2023-04-08T21:59:58.759Z,24.55
2023-04-08T22:02:28.783Z,23.58
2023-04-08T22:04:59.919Z,22.77
2023-04-08T22:07:29.834Z,24.98
2023-04-08T22:10:01.345Z,22.83
2023-04-08T22:12:32.873Z,23.80
2023-04-08T22:15:02.852Z,22.08
2023-04-08T22:17:32.970Z,23.33
2023-04-08T22:20:02.981Z,23.27
2023-04-08T22:22:32.694Z,22.63
2023-04-08T22:25:03.182Z,22.02
2023-04-08T22:27:33.283Z,22.27
2023-04-08T22:30:03.231Z,22.55
2023-04-08T22:32:33.058Z,26.10
2023-04-08T22:35:03.160Z,23.33
2023-04-08T22:37:34.066Z,23.20
2023-04-08T22:40:05.231Z,22.48
2023-04-08T22:42:34.991Z,21.80
2023-04-08T22:45:06.542Z,22.17
2023-04-08T22:47:36.658Z,22.95
2023-04-08T22:50:06.984Z,22.92
2023-04-08T22:52:37.879Z,27.25
2023-04-08T22:55:08.607Z,26.13
2023-04-08T22:57:38.954Z,24.45
2023-04-08T23:00:09.407Z,24.88
2023-04-08T23:02:39.779Z,25.15
2023-04-08T23:05:10.178Z,24.05
2023-04-08T23:07:40.386Z,23.17
2023-04-08T23:10:10.758Z,22.63
2023-04-08T23:12:40.726Z,22.75
2023-04-08T23:15:10.734Z,23.60
2023-04-08T23:17:40.914Z,30.30
2023-04-08T23:20:11.260Z,25.13
2023-04-08T23:22:41.281Z,23.90
2023-04-08T23:25:11.709Z,22.73
2023-04-08T23:27:41.986Z,23.33
2023-04-08T23:30:12.181Z,21.98
2023-04-08T23:32:42.200Z,28.92
2023-04-08T23:35:12.209Z,36.60
2023-04-08T23:37:42.355Z,28.92
2023-04-08T23:40:12.530Z,22.10
2023-04-08T23:42:42.489Z,19.77
2023-04-08T23:45:12.622Z,20.23
2023-04-08T23:47:42.807Z,19.80
2023-04-08T23:50:12.669Z,19.83
2023-04-08T23:52:42.964Z,19.85
2023-04-08T23:55:12.837Z,18.48
2023-04-08T23:57:45.945Z,20.20
